Time;durP1;ratioP1;P1;durP2;ratioP2;P2;SDS_P1;SDS_P2;PMS_P1;PMS_P2;Temp;Humidity;BMP_temperature;BMP_pressure;BME280_temperature;BME280_humidity;BME280_pressure;Samples;Min_cycle;Max_cycle;Signal;HPM_P1;HPM_P2
2022/04/17 00:02:05;;;;;;;0.32;0.32;;;6.90;99.90;;;;;;5093496;28;20052;-74
2022/04/17 00:04:31;;;;;;;2.13;0.68;;;6.90;99.90;;;;;;5076616;28;20040;-73
2022/04/17 00:06:57;;;;;;;2.00;0.95;;;7.00;99.90;;;;;;5093008;28;20043;-74
2022/04/17 00:09:23;;;;;;;0.47;0.45;;;7.50;99.90;;;;;;5076296;28;20047;-74
2022/04/17 00:11:49;;;;;;;0.73;0.73;;;6.90;99.90;;;;;;5092949;28;20047;-74
2022/04/17 00:14:15;;;;;;;3.85;1.65;;;7.00;99.90;;;;;;5076054;28;20127;-74
2022/04/17 00:16:43;;;;;;;0.77;0.77;;;7.00;99.90;;;;;;5059576;28;20381;-74
2022/04/17 00:19:09;;;;;;;0.77;0.77;;;7.00;99.90;;;;;;5075966;28;20046;-75
2022/04/17 00:21:35;;;;;;;0.40;0.40;;;7.00;99.90;;;;;;5075845;28;20044;-74
2022/04/17 00:24:01;;;;;;;0.73;0.70;;;7.00;99.90;;;;;;5092611;28;20071;-74
2022/04/17 00:26:27;;;;;;;1.30;1.23;;;6.90;99.90;;;;;;5076247;28;20036;-74
2022/04/17 00:28:52;;;;;;;0.57;0.57;;;6.90;99.90;;;;;;5075816;28;20101;-74
2022/04/17 00:31:18;;;;;;;1.23;0.90;;;6.90;99.90;;;;;;5075968;28;20039;-74
2022/04/17 00:33:44;;;;;;;0.40;0.40;;;6.90;99.90;;;;;;5092943;28;20048;-74
2022/04/17 00:36:09;;;;;;;2.15;1.35;;;6.80;99.90;;;;;;5092870;28;20044;-74
2022/04/17 00:38:35;;;;;;;1.05;1.02;;;6.80;99.90;;;;;;5092718;28;20467;-74
2022/04/17 00:41:01;;;;;;;0.98;0.98;;;6.80;99.90;;;;;;5092481;28;20075;-74
2022/04/17 00:43:31;;;;;;;1.75;0.93;;;6.80;99.90;;;;;;5092460;28;20043;-74
2022/04/17 00:45:58;;;;;;;0.73;0.73;;;6.80;99.90;;;;;;5092656;28;20509;-74
2022/04/17 00:48:24;;;;;;;1.45;1.05;;;6.70;99.90;;;;;;5092490;28;20487;-74
2022/04/17 00:50:51;;;;;;;0.63;0.63;;;6.60;99.90;;;;;;5092163;28;20040;-74
2022/04/17 00:53:18;;;;;;;0.77;0.77;;;6.70;99.90;;;;;;5092562;28;20083;-74
2022/04/17 00:55:46;;;;;;;1.55;0.70;;;6.60;99.90;;;;;;5075461;28;20076;-75
2022/04/17 00:58:14;;;;;;;0.50;0.45;;;7.30;99.90;;;;;;5092154;28;20070;-74
2022/04/17 01:00:41;;;;;;;0.50;0.50;;;6.60;99.90;;;;;;5075102;28;20036;-74
2022/04/17 01:03:07;;;;;;;0.70;0.70;;;6.50;99.90;;;;;;5091981;28;20066;-74
2022/04/17 01:05:33;;;;;;;0.90;0.77;;;6.40;99.90;;;;;;5092221;28;20050;-74
2022/04/17 01:07:58;;;;;;;2.05;1.05;;;6.50;99.90;;;;;;5074057;28;20040;-74
2022/04/17 01:10:24;;;;;;;4.03;1.40;;;8.00;99.90;;;;;;5091843;28;20039;-74
2022/04/17 01:12:58;;;;;;;0.85;0.70;;;6.40;99.90;;;;;;5091854;28;20040;-74
2022/04/17 01:15:24;;;;;;;1.25;0.93;;;6.40;99.90;;;;;;5075247;28;20432;-74
2022/04/17 01:17:50;;;;;;;0.52;0.40;;;6.40;99.90;;;;;;5091725;28;20047;-74
2022/04/17 01:20:17;;;;;;;0.98;0.70;;;6.40;99.90;;;;;;5074875;28;20142;-74
2022/04/17 01:22:49;;;;;;;1.15;1.05;;;6.30;99.90;;;;;;5091611;28;20475;-74
2022/04/17 01:28:03;;;;;;;1.10;1.00;;;6.90;99.90;;;;;;5091645;28;20051;-74
2022/04/17 01:30:29;;;;;;;1.90;1.05;;;6.30;99.90;;;;;;5074637;28;20063;-74
2022/04/17 01:32:54;;;;;;;1.13;0.70;;;6.20;99.90;;;;;;5091730;28;20129;-74
2022/04/17 01:35:20;;;;;;;0.68;0.68;;;6.20;99.90;;;;;;5091564;28;20048;-74
2022/04/17 01:37:49;;;;;;;0.70;0.70;;;6.20;99.90;;;;;;5091421;28;20468;-74
2022/04/17 01:40:15;;;;;;;1.13;1.02;;;6.10;99.90;;;;;;5092008;28;20578;-74
2022/04/17 01:42:41;;;;;;;0.57;0.40;;;6.10;99.90;;;;;;5074294;28;20044;-74
2022/04/17 01:45:09;;;;;;;0.77;0.65;;;6.10;99.90;;;;;;5091588;28;20044;-74
2022/04/17 01:47:35;;;;;;;0.70;0.70;;;6.10;99.90;;;;;;5091433;28;20036;-74
2022/04/17 01:50:00;;;;;;;2.30;1.05;;;6.00;99.90;;;;;;5074223;28;20067;-74
2022/04/17 01:52:27;;;;;;;3.70;1.27;;;6.00;99.90;;;;;;5091119;28;20070;-74
2022/04/17 01:54:53;;;;;;;2.75;1.42;;;6.00;99.90;;;;;;5074622;28;20101;-74
2022/04/17 01:57:18;;;;;;;5.00;0.90;;;6.00;99.90;;;;;;5074964;28;20044;-74
2022/04/17 01:59:44;;;;;;;1.08;0.98;;;5.90;99.90;;;;;;5091167;28;20048;-74
2022/04/17 02:02:10;;;;;;;1.02;0.93;;;6.20;99.90;;;;;;5091587;28;20058;-74
2022/04/17 02:04:36;;;;;;;1.42;1.00;;;5.90;99.90;;;;;;5091394;28;20040;-74
2022/04/17 02:07:05;;;;;;;7.18;1.02;;;5.70;99.90;;;;;;5074696;28;20059;-74
2022/04/17 02:09:30;;;;;;;1.27;1.13;;;5.90;99.90;;;;;;5090902;28;20036;-74
2022/04/17 02:11:56;;;;;;;2.95;1.55;;;5.90;99.90;;;;;;5090988;28;20518;-74
2022/04/17 02:14:22;;;;;;;1.60;1.20;;;5.90;99.90;;;;;;5074315;28;20075;-74
2022/04/17 02:16:48;;;;;;;1.83;0.77;;;5.80;99.90;;;;;;5091143;28;20036;-73
2022/04/17 02:19:14;;;;;;;1.55;1.23;;;5.80;99.90;;;;;;5090531;28;20136;-74
2022/04/17 02:21:39;;;;;;;2.65;1.85;;;5.80;99.90;;;;;;5090910;28;20072;-73
2022/04/17 02:24:05;;;;;;;0.93;0.88;;;5.80;99.90;;;;;;5090771;28;20047;-73
2022/04/17 02:26:32;;;;;;;10.20;1.17;;;5.80;99.90;;;;;;5090918;28;20184;-74
2022/04/17 02:28:59;;;;;;;1.60;1.00;;;5.70;99.90;;;;;;5074007;28;20513;-73
2022/04/17 02:31:26;;;;;;;0.73;0.73;;;5.70;99.90;;;;;;5090815;28;20047;-73
2022/04/17 02:33:52;;;;;;;0.45;0.45;;;5.70;99.90;;;;;;5090923;28;20152;-73
2022/04/17 02:36:19;;;;;;;0.57;0.57;;;5.60;99.90;;;;;;5074000;28;20078;-74
2022/04/17 02:38:45;;;;;;;0.75;0.75;;;5.60;99.90;;;;;;5091153;28;20066;-75
2022/04/17 02:41:10;;;;;;;0.98;0.73;;;5.50;99.90;;;;;;5090657;28;20126;-73
2022/04/17 02:43:36;;;;;;;1.40;1.10;;;5.50;99.90;;;;;;5074099;28;20117;-74
2022/04/17 02:46:02;;;;;;;1.30;0.95;;;5.50;99.90;;;;;;5073923;28;20041;-74
2022/04/17 02:48:28;;;;;;;1.95;1.15;;;5.50;99.90;;;;;;5090635;28;20040;-74
2022/04/17 02:50:55;;;;;;;1.10;0.98;;;6.20;99.90;;;;;;5091083;28;20483;-74
2022/04/17 02:53:22;;;;;;;2.25;1.10;;;5.50;99.90;;;;;;5090541;28;20052;-74
2022/04/17 02:55:47;;;;;;;0.98;0.75;;;5.40;99.90;;;;;;5090635;28;20052;-74
2022/04/17 02:58:14;;;;;;;2.13;1.25;;;5.30;99.90;;;;;;5090818;28;20043;-73
2022/04/17 03:06:10;;;;;;;2.28;1.08;;;5.00;99.90;;;;;;5076258;28;20051;-73
2022/04/17 03:08:41;;;;;;;4.00;1.20;;;5.10;99.90;;;;;;5073663;28;20193;-74
2022/04/17 03:11:07;;;;;;;0.80;0.65;;;5.10;99.90;;;;;;5090817;28;20406;-74
2022/04/17 03:13:33;;;;;;;1.05;0.68;;;5.10;99.90;;;;;;5090431;28;20079;-74
2022/04/17 03:15:59;;;;;;;1.08;0.98;;;5.00;99.90;;;;;;5090264;28;20036;-73
2022/04/17 03:18:25;;;;;;;0.70;0.70;;;5.00;99.90;;;;;;5090438;28;20048;-74
2022/04/17 03:20:51;;;;;;;3.22;1.38;;;4.80;99.90;;;;;;5090455;28;20040;-74
2022/04/17 03:23:17;;;;;;;1.38;1.27;;;4.90;99.90;;;;;;5073614;28;20047;-74
2022/04/17 03:25:43;;;;;;;0.40;0.40;;;4.90;99.90;;;;;;5073332;28;20419;-73
2022/04/17 03:28:09;;;;;;;0.40;0.40;;;4.80;99.90;;;;;;5090173;28;20102;-73
2022/04/17 03:30:35;;;;;;;0.63;0.63;;;4.70;99.90;;;;;;5091056;28;20075;-74
2022/04/17 03:33:01;;;;;;;0.85;0.68;;;4.90;99.90;;;;;;5093885;28;20127;-73
2022/04/17 03:35:28;;;;;;;3.17;1.50;;;4.90;99.90;;;;;;5060804;28;20047;-74
2022/04/17 03:37:53;;;;;;;0.77;0.77;;;4.80;99.90;;;;;;5094241;28;20047;-74
2022/04/17 03:40:19;;;;;;;1.67;1.23;;;4.60;99.90;;;;;;5077443;28;20044;-74
2022/04/17 03:42:45;;;;;;;0.70;0.63;;;4.40;99.90;;;;;;5093918;28;20096;-74
2022/04/17 03:45:14;;;;;;;1.60;0.88;;;5.40;99.90;;;;;;5076976;28;20119;-74
2022/04/17 03:47:40;;;;;;;2.05;0.88;;;4.40;99.90;;;;;;5093499;28;20071;-74
2022/04/17 03:50:07;;;;;;;4.28;1.20;;;4.30;99.90;;;;;;5093574;28;20040;-74
2022/04/17 03:52:44;;;;;;;0.45;0.45;;;4.30;99.90;;;;;;5076766;28;20048;-74
2022/04/17 03:55:10;;;;;;;1.10;0.95;;;4.30;99.90;;;;;;5077056;28;20056;-74
2022/04/17 03:57:36;;;;;;;1.75;1.40;;;4.20;99.90;;;;;;5093186;28;20051;-73
2022/04/17 04:00:05;;;;;;;2.40;1.13;;;4.10;99.90;;;;;;5076441;28;20036;-73
2022/04/17 04:02:30;;;;;;;1.00;0.93;;;4.10;99.90;;;;;;5093210;28;20040;-74
2022/04/17 04:04:57;;;;;;;1.38;1.00;;;4.00;99.90;;;;;;5093319;28;20047;-74
2022/04/17 04:07:23;;;;;;;0.28;0.28;;;4.00;99.90;;;;;;5059775;28;20043;-74
2022/04/17 04:09:49;;;;;;;3.22;1.30;;;3.80;99.90;;;;;;5076637;28;20441;-73
2022/04/17 04:12:15;;;;;;;2.15;0.82;;;3.90;99.90;;;;;;5076251;28;20063;-73
2022/04/17 04:14:41;;;;;;;1.05;0.40;;;3.90;99.90;;;;;;5093110;28;20047;-73
2022/04/17 04:17:06;;;;;;;0.45;0.45;;;3.80;99.90;;;;;;5076367;28;20083;-74
2022/04/17 04:19:32;;;;;;;0.30;0.30;;;3.70;99.90;;;;;;5076200;28;20203;-74
2022/04/17 04:21:58;;;;;;;1.15;0.85;;;3.60;99.90;;;;;;5093031;28;20536;-73
2022/04/17 04:24:24;;;;;;;0.95;0.75;;;3.70;99.90;;;;;;5075983;28;20048;-74
2022/04/17 04:29:38;;;;;;;1.75;0.90;;;3.60;99.90;;;;;;5092784;28;20108;-73
2022/04/17 04:32:05;;;;;;;0.30;0.30;;;3.60;99.90;;;;;;5092678;28;20044;-74
2022/04/17 04:34:30;;;;;;;0.43;0.43;;;3.60;99.90;;;;;;5092866;28;20055;-73
2022/04/17 04:36:56;;;;;;;2.45;1.27;;;3.40;99.90;;;;;;5092553;28;20044;-74
2022/04/17 04:39:22;;;;;;;1.42;0.82;;;3.60;99.90;;;;;;5075568;28;20036;-73
2022/04/17 04:41:48;;;;;;;2.38;1.40;;;3.50;99.90;;;;;;5075529;28;20384;-74
2022/04/17 04:44:13;;;;;;;1.38;1.30;;;3.50;99.90;;;;;;5092702;28;20040;-73
2022/04/17 04:46:39;;;;;;;0.65;0.65;;;3.50;99.90;;;;;;5092408;28;20082;-73
2022/04/17 04:51:50;;;;;;;3.08;0.80;;;3.50;99.90;;;;;;5092580;28;20105;-74
2022/04/17 04:54:16;;;;;;;1.20;1.13;;;3.50;99.90;;;;;;5092353;28;20128;-74
2022/04/17 04:56:42;;;;;;;0.40;0.40;;;3.40;99.90;;;;;;5075476;28;20040;-74
2022/04/17 04:59:09;;;;;;;0.65;0.65;;;3.40;99.90;;;;;;5092329;28;20047;-74
2022/04/17 05:01:35;;;;;;;1.38;0.77;;;3.40;99.90;;;;;;5075416;28;20051;-74
2022/04/17 05:04:01;;;;;;;0.55;0.55;;;3.50;99.90;;;;;;5075284;28;20040;-74
2022/04/17 05:06:26;;;;;;;0.63;0.63;;;3.50;99.90;;;;;;5092070;28;20035;-74
2022/04/17 05:08:55;;;;;;;1.92;1.35;;;3.60;99.90;;;;;;5092262;28;20043;-74
2022/04/17 05:11:21;;;;;;;0.60;0.60;;;3.70;99.90;;;;;;5074915;28;20050;-74
2022/04/17 05:13:47;;;;;;;1.35;1.23;;;3.70;99.90;;;;;;5092026;28;20419;-74
2022/04/17 05:16:13;;;;;;;1.88;1.48;;;3.80;99.90;;;;;;5075256;28;20054;-73
2022/04/17 05:18:39;;;;;;;0.65;0.63;;;4.60;99.90;;;;;;5075204;28;20036;-74
2022/04/17 05:21:06;;;;;;;0.50;0.50;;;4.00;99.90;;;;;;5092171;28;20574;-74
2022/04/17 05:23:32;;;;;;;1.45;0.63;;;4.10;99.90;;;;;;5074988;28;20047;-74
2022/04/17 05:26:03;;;;;;;0.57;0.57;;;4.20;99.90;;;;;;5091578;28;20052;-74
2022/04/17 05:28:29;;;;;;;0.47;0.47;;;4.30;99.90;;;;;;5091719;28;20123;-74
2022/04/17 05:30:55;;;;;;;1.20;0.82;;;4.40;99.90;;;;;;5075125;28;20043;-75
2022/04/17 05:33:22;;;;;;;1.48;1.13;;;4.40;99.90;;;;;;5091680;28;20044;-74
2022/04/17 05:35:49;;;;;;;1.88;1.17;;;4.50;99.90;;;;;;5091645;28;20036;-74
2022/04/17 05:38:15;;;;;;;2.05;1.02;;;4.60;99.90;;;;;;5074989;28;20087;-74
2022/04/17 05:40:43;;;;;;;7.22;1.15;;;4.70;99.90;;;;;;5091437;28;20044;-74
2022/04/17 05:43:10;;;;;;;2.08;1.70;;;4.80;99.90;;;;;;5091524;28;20051;-74
2022/04/17 05:45:39;;;;;;;2.38;1.05;;;4.90;99.90;;;;;;5074624;28;20047;-74
2022/04/17 05:48:07;;;;;;;1.15;1.02;;;5.00;99.90;;;;;;5091322;28;20108;-74
2022/04/17 05:50:33;;;;;;;0.70;0.70;;;5.10;99.90;;;;;;5091446;28;20566;-74
2022/04/17 05:53:00;;;;;;;0.68;0.47;;;5.20;99.90;;;;;;5090801;28;20078;-74
2022/04/17 05:55:25;;;;;;;4.18;1.95;;;5.30;99.90;;;;;;5091660;28;20032;-74
2022/04/17 05:57:51;;;;;;;1.55;1.45;;;5.40;99.90;;;;;;5058075;28;20050;-74
2022/04/17 06:00:17;;;;;;;0.95;0.88;;;5.50;99.90;;;;;;5091259;28;20380;-75
2022/04/17 06:02:46;;;;;;;1.20;1.10;;;5.60;99.90;;;;;;5074160;28;20113;-75
2022/04/17 06:05:14;;;;;;;4.47;1.48;;;5.70;99.90;;;;;;5074061;28;20396;-74
2022/04/17 06:07:40;;;;;;;1.13;1.00;;;5.80;99.90;;;;;;5057375;28;20122;-74
2022/04/17 06:10:11;;;;;;;3.80;1.40;;;6.00;99.90;;;;;;5091052;28;20108;-75
2022/04/17 06:12:37;;;;;;;0.75;0.75;;;6.10;99.90;;;;;;5074229;28;20051;-74
2022/04/17 06:15:05;;;;;;;2.70;1.42;;;6.20;99.90;;;;;;5090844;28;20093;-74
2022/04/17 06:17:40;;;;;;;3.20;1.67;;;6.30;99.90;;;;;;5074247;28;20105;-74
2022/04/17 06:20:11;;;;;;;2.72;1.58;;;6.50;99.90;;;;;;5074018;28;20044;-74
2022/04/17 06:22:37;;;;;;;0.93;0.73;;;6.60;99.90;;;;;;5090964;28;20036;-74
2022/04/17 06:25:05;;;;;;;2.13;1.60;;;6.70;99.90;;;;;;5090479;28;20052;-75
2022/04/17 06:27:41;;;;;;;6.15;1.75;;;6.60;99.90;;;;;;5091020;28;20102;-74
2022/04/17 06:30:15;;;;;;;4.38;2.47;;;7.00;99.90;;;;;;5073971;28;20040;-74
2022/04/17 06:32:42;;;;;;;2.08;1.85;;;7.20;99.90;;;;;;5090716;28;20048;-74
2022/04/17 06:35:09;;;;;;;3.42;1.80;;;7.40;99.90;;;;;;5090707;28;20036;-74
2022/04/17 06:37:54;;;;;;;1.95;1.58;;;7.50;99.90;;;;;;5074134;28;20556;-74
2022/04/17 06:40:25;;;;;;;1.60;1.33;;;7.70;99.90;;;;;;5090629;28;20040;-74
2022/04/17 06:42:52;;;;;;;;;;;7.80;99.90;;;;;;5090929;28;20044;-75
2022/04/17 06:45:18;;;;;;;1.58;1.45;;;8.20;99.90;;;;;;5090343;28;19923;-75
2022/04/17 06:47:44;;;;;;;1.40;1.30;;;8.00;99.90;;;;;;5090335;28;20043;-74
2022/04/17 06:50:11;;;;;;;2.38;1.55;;;7.90;99.90;;;;;;5073445;28;20097;-74
2022/04/17 06:52:37;;;;;;;6.95;1.92;;;8.00;99.90;;;;;;5090334;28;20040;-74
2022/04/17 06:55:04;;;;;;;4.13;1.70;;;8.50;99.90;;;;;;5073711;28;20399;-74
2022/04/17 06:57:31;;;;;;;2.40;1.67;;;8.60;99.90;;;;;;5056868;28;20113;-75
2022/04/17 06:59:58;;;;;;;2.10;1.48;;;8.70;99.90;;;;;;5073434;28;20044;-74
2022/04/17 07:02:24;;;;;;;2.95;1.92;;;9.40;99.90;;;;;;5090202;28;20113;-74
2022/04/17 07:04:50;;;;;;;1.65;1.33;;;8.80;99.90;;;;;;5056911;28;20028;-74
2022/04/17 07:07:16;;;;;;;3.33;1.90;;;9.30;99.90;;;;;;5094045;28;20177;-74
2022/04/17 07:09:42;;;;;;;2.97;1.77;;;9.20;99.90;;;;;;5094296;28;20483;-74
2022/04/17 07:12:07;;;;;;;4.00;2.78;;;9.80;99.90;;;;;;5093983;28;20050;-74
2022/04/17 07:14:33;;;;;;;2.03;1.17;;;9.30;99.90;;;;;;5094028;28;20483;-74
2022/04/17 07:16:59;;;;;;;1.38;1.27;;;9.70;99.90;;;;;;5093882;28;20466;-74
2022/04/17 07:19:24;;;;;;;1.85;1.40;;;9.70;99.90;;;;;;5077369;28;20048;-74
2022/04/17 07:21:50;;;;;;;2.38;1.20;;;10.00;99.90;;;;;;5093932;28;20058;-74
2022/04/17 07:24:16;;;;;;;5.15;2.10;;;10.20;99.90;;;;;;5094051;28;20050;-75
2022/04/17 07:26:42;;;;;;;2.05;1.33;;;9.90;99.90;;;;;;5093850;28;20571;-74
2022/04/17 07:29:08;;;;;;;1.85;1.63;;;10.30;99.90;;;;;;5077242;28;20040;-74
2022/04/17 07:31:34;;;;;;;3.75;2.10;;;10.80;99.90;;;;;;5076947;28;20406;-74
2022/04/17 07:34:00;;;;;;;2.45;1.63;;;10.20;99.90;;;;;;5076892;28;20040;-74
2022/04/17 07:36:25;;;;;;;1.23;1.13;;;10.70;99.90;;;;;;5094058;28;20044;-74
2022/04/17 07:38:51;;;;;;;2.72;1.23;;;10.40;99.90;;;;;;5093726;28;20040;-74
2022/04/17 07:41:17;;;;;;;1.92;1.42;;;11.00;99.90;;;;;;5077107;28;20040;-74
2022/04/17 07:43:43;;;;;;;3.13;1.92;;;10.50;99.90;;;;;;5076724;28;20131;-70
2022/04/17 07:46:08;;;;;;;2.65;2.28;;;11.00;99.90;;;;;;5076542;28;20127;-73
2022/04/17 07:48:34;;;;;;;5.10;2.45;;;11.40;99.90;;;;;;5076750;28;20039;-74
2022/04/17 07:51:00;;;;;;;1.45;1.35;;;10.50;99.90;;;;;;5076966;28;20096;-74
2022/04/17 07:53:25;;;;;;;3.72;2.83;;;11.10;99.90;;;;;;5076450;28;20083;-74
2022/04/17 07:55:51;;;;;;;2.63;1.42;;;10.80;99.90;;;;;;5076728;28;20052;-73
2022/04/17 07:58:30;;;;;;;3.67;2.05;;;11.00;99.90;;;;;;5093546;28;20036;-73
2022/04/17 08:00:59;;;;;;;3.25;1.85;;;11.00;99.90;;;;;;5078625;28;20402;-74
2022/04/17 08:06:01;;;;;;;2.35;1.10;;;11.40;99.90;;;;;;5093513;28;20044;-74
2022/04/17 08:08:28;;;;;;;0.77;0.70;;;11.60;99.90;;;;;;5093388;28;20612;-74
2022/04/17 08:10:54;;;;;;;2.30;1.73;;;11.30;99.90;;;;;;5076888;28;20051;-74
2022/04/17 08:13:19;;;;;;;3.03;1.52;;;11.40;99.90;;;;;;5076057;28;20032;-74
2022/04/17 08:15:45;;;;;;;2.90;1.58;;;11.40;99.90;;;;;;5093010;28;20122;-74
2022/04/17 08:18:12;;;;;;;1.45;1.02;;;11.80;99.90;;;;;;5092603;28;20047;-73
2022/04/17 08:20:38;;;;;;;2.22;1.55;;;11.50;99.90;;;;;;5092662;28;20040;-73
2022/04/17 08:23:04;;;;;;;7.43;1.35;;;11.70;99.90;;;;;;5092701;28;20081;-73
2022/04/17 08:25:29;;;;;;;1.70;1.55;;;11.80;99.90;;;;;;5092592;28;20056;-73
2022/04/17 08:27:56;;;;;;;1.83;1.35;;;11.70;99.90;;;;;;5076157;28;20044;-73
2022/04/17 08:30:27;;;;;;;1.95;1.23;;;11.80;99.90;;;;;;5092799;28;20063;-74
2022/04/17 08:32:53;;;;;;;;;;;11.90;99.40;;;;;;5093205;28;20048;-74
2022/04/17 08:35:19;;;;;;;3.10;1.88;;;12.00;99.90;;;;;;5076079;28;19924;-74
2022/04/17 08:37:46;;;;;;;1.65;1.10;;;12.10;99.90;;;;;;5075978;28;20040;-74
2022/04/17 08:40:13;;;;;;;2.47;1.35;;;12.20;99.40;;;;;;5092715;28;20100;-74
2022/04/17 08:42:40;;;;;;;1.33;1.23;;;12.10;98.50;;;;;;5075650;28;20036;-74
2022/04/17 08:45:09;;;;;;;3.53;1.38;;;12.30;99.70;;;;;;5092385;28;20043;-74
2022/04/17 08:47:36;;;;;;;5.03;2.05;;;12.40;99.40;;;;;;5092474;28;20047;-75
2022/04/17 08:50:02;;;;;;;2.63;2.03;;;12.50;98.90;;;;;;5058992;28;20077;-74
2022/04/17 08:52:30;;;;;;;1.70;1.27;;;12.60;98.60;;;;;;5092268;28;20044;-74
2022/04/17 08:54:59;;;;;;;1.17;0.90;;;12.60;98.10;;;;;;5092242;28;20048;-74
2022/04/17 08:57:25;;;;;;;1.52;1.05;;;12.70;98.20;;;;;;5092158;28;20495;-74
2022/04/17 08:59:50;;;;;;;2.25;1.13;;;12.80;97.80;;;;;;5092020;28;20117;-74
2022/04/17 09:02:18;;;;;;;2.92;1.63;;;13.00;97.90;;;;;;5092152;28;20044;-74
2022/04/17 09:04:45;;;;;;;1.60;1.30;;;12.90;97.70;;;;;;5091989;28;20044;-74
2022/04/17 09:07:11;;;;;;;3.55;1.88;;;12.90;97.40;;;;;;5092186;28;20506;-74
2022/04/17 09:09:56;;;;;;;3.08;1.40;;;12.90;98.00;;;;;;5091937;28;20105;-74
2022/04/17 09:12:24;;;;;;;3.10;1.17;;;13.00;98.40;;;;;;5075498;28;20040;-74
2022/04/17 09:14:51;;;;;;;0.77;0.68;;;13.30;99.90;;;;;;5075165;28;20066;-74
2022/04/17 09:17:18;;;;;;;3.72;1.30;;;13.40;99.90;;;;;;5075023;28;20048;-74
2022/04/17 09:19:44;;;;;;;2.03;1.15;;;13.40;96.70;;;;;;5091673;28;20147;-74
2022/04/17 09:22:10;;;;;;;2.70;1.13;;;13.40;95.20;;;;;;5091547;28;20123;-74
2022/04/17 09:24:37;;;;;;;2.92;1.27;;;13.30;95.90;;;;;;5091710;28;20074;-73
2022/04/17 09:27:05;;;;;;;1.13;1.02;;;13.40;95.80;;;;;;5091480;28;20227;-74
2022/04/17 09:29:33;;;;;;;1.13;0.98;;;13.30;94.90;;;;;;5090750;28;20123;-74
2022/04/17 09:32:00;;;;;;;1.08;0.95;;;13.40;94.90;;;;;;5091565;28;20039;-74
2022/04/17 09:34:27;;;;;;;1.73;1.17;;;13.40;94.80;;;;;;5074747;28;20046;-74
2022/04/17 09:36:58;;;;;;;1.55;1.08;;;13.40;93.50;;;;;;5091365;28;20105;-74
2022/04/17 09:39:29;;;;;;;2.95;1.08;;;13.60;95.90;;;;;;5074984;28;20043;-74
2022/04/17 09:41:57;;;;;;;1.17;0.90;;;14.10;96.90;;;;;;5091402;28;20122;-74
2022/04/17 09:44:46;;;;;;;1.98;1.40;;;14.30;98.90;;;;;;5091336;28;20044;-74
2022/04/17 09:47:16;;;;;;;1.35;1.25;;;14.40;94.40;;;;;;5074729;28;20484;-74
2022/04/17 09:50:09;;;;;;;3.10;1.45;;;14.50;95.10;;;;;;5074803;28;20040;-74
2022/04/17 09:52:41;;;;;;;1.38;1.25;;;14.50;95.60;;;;;;5073235;28;20079;-74
2022/04/17 09:55:07;;;;;;;2.40;2.00;;;14.50;94.50;;;;;;5091342;28;20044;-74
2022/04/17 09:57:37;;;;;;;3.05;1.45;;;14.40;95.10;;;;;;5091201;28;20040;-74
2022/04/17 10:00:12;;;;;;;0.38;0.38;;;14.60;92.30;;;;;;5091135;28;20126;-74
2022/04/17 10:02:40;;;;;;;2.60;1.17;;;14.80;92.90;;;;;;5090890;28;20124;-73
2022/04/17 10:05:07;;;;;;;2.60;0.95;;;14.80;91.50;;;;;;5091401;28;20044;-74
2022/04/17 10:07:36;;;;;;;1.10;0.85;;;15.00;92.50;;;;;;5090855;28;20055;-74
2022/04/17 10:10:03;;;;;;;0.40;0.40;;;15.40;91.90;;;;;;5091301;28;20081;-74
2022/04/17 10:12:29;;;;;;;1.42;0.47;;;14.90;94.00;;;;;;5074277;28;20051;-75
2022/04/17 10:14:56;;;;;;;1.15;0.98;;;15.40;83.60;;;;;;5090887;28;20052;-74
2022/04/17 10:17:23;;;;;;;0.88;0.85;;;15.20;86.30;;;;;;5074183;28;20044;-74
2022/04/17 10:19:50;;;;;;;1.00;0.80;;;15.40;88.00;;;;;;5090878;28;20084;-74
2022/04/17 10:22:21;;;;;;;1.33;0.93;;;15.40;89.10;;;;;;5090964;28;20052;-73
2022/04/17 10:24:51;;;;;;;;;;;15.40;87.50;;;;;;5091115;28;20114;-75
2022/04/17 10:27:21;;;;;;;2.40;1.37;;;15.70;84.70;;;;;;5091023;28;20056;-74
2022/04/17 10:30:02;;;;;;;0.28;0.28;;;15.70;86.60;;;;;;5057604;28;20036;-74
2022/04/17 10:32:38;;;;;;;;;;;15.60;86.00;;;;;;5091128;28;20040;-76
2022/04/17 10:35:26;;;;;;;0.50;0.50;;;15.70;84.00;;;;;;5107662;28;19916;-75
2022/04/17 10:38:13;;;;;;;0.30;0.30;;;15.70;82.80;;;;;;5090902;28;20040;-75
2022/04/17 10:40:40;;;;;;;0.70;0.70;;;15.80;82.40;;;;;;5093556;28;20051;-74
2022/04/17 10:43:06;;;;;;;2.17;1.13;;;15.80;84.10;;;;;;5094773;28;20123;-74
2022/04/17 10:45:32;;;;;;;0.85;0.77;;;15.90;83.80;;;;;;5077837;28;20062;-75
2022/04/17 10:48:11;;;;;;;1.00;0.82;;;15.80;79.90;;;;;;5094784;28;20051;-74
2022/04/17 10:50:57;;;;;;;2.42;0.98;;;15.60;76.80;;;;;;5094912;28;20036;-73
2022/04/17 10:53:29;;;;;;;1.02;0.98;;;15.50;76.70;;;;;;5077375;28;20091;-74
2022/04/17 10:56:14;;;;;;;0.93;0.88;;;15.60;79.70;;;;;;5094551;28;20476;-74
2022/04/17 10:58:59;;;;;;;0.70;0.60;;;15.70;79.60;;;;;;5094387;28;20048;-74
2022/04/17 11:01:43;;;;;;;1.15;0.82;;;15.70;77.40;;;;;;5077659;28;20044;-74
2022/04/17 11:04:17;;;;;;;0.95;0.65;;;15.70;78.80;;;;;;5094164;28;20040;-74
2022/04/17 11:06:44;;;;;;;2.25;0.75;;;15.80;80.20;;;;;;5077388;28;20071;-75
2022/04/17 11:09:15;;;;;;;2.00;1.25;;;15.60;76.60;;;;;;5094284;28;20181;-74
2022/04/17 11:11:45;;;;;;;0.95;0.70;;;15.60;78.70;;;;;;5094232;28;20044;-74
2022/04/17 11:14:20;;;;;;;0.95;0.60;;;15.60;74.20;;;;;;5077516;28;20044;-75
2022/04/17 11:16:51;;;;;;;1.20;1.10;;;15.50;74.60;;;;;;5077211;28;20050;-75
2022/04/17 11:19:20;;;;;;;1.42;1.33;;;15.50;77.10;;;;;;5094066;28;20410;-74
2022/04/17 11:21:47;;;;;;;2.70;1.13;;;15.70;78.10;;;;;;5093938;28;20083;-74
2022/04/17 11:24:13;;;;;;;1.40;1.25;;;15.70;78.00;;;;;;5093899;28;20039;-73
2022/04/17 11:26:54;;;;;;;1.42;1.10;;;15.80;76.50;;;;;;5093682;28;20048;-74
2022/04/17 11:29:48;;;;;;;1.25;1.15;;;15.80;74.90;;;;;;5093927;28;20044;-74
2022/04/17 11:32:17;;;;;;;1.48;0.90;;;15.70;73.40;;;;;;5094091;28;20498;-74
2022/04/17 11:34:47;;;;;;;1.40;0.82;;;15.50;72.70;;;;;;5093761;28;20055;-74
2022/04/17 11:37:16;;;;;;;1.92;1.40;;;15.60;72.50;;;;;;5094017;28;20046;-74
2022/04/17 11:39:42;;;;;;;1.45;1.10;;;15.90;75.50;;;;;;5093588;28;20059;-74
2022/04/17 11:42:09;;;;;;;2.05;1.00;;;15.50;72.10;;;;;;5060424;28;20040;-74
2022/04/17 11:44:36;;;;;;;1.70;1.17;;;16.00;76.60;;;;;;5093891;28;20078;-74
2022/04/17 11:47:02;;;;;;;0.95;0.77;;;16.10;74.20;;;;;;5093561;28;20043;-74
2022/04/17 11:49:32;;;;;;;1.17;1.05;;;16.20;75.70;;;;;;5076821;28;20094;-74
2022/04/17 11:52:10;;;;;;;4.18;1.65;;;16.30;75.00;;;;;;5092730;28;20048;-74
2022/04/17 11:54:36;;;;;;;2.10;1.40;;;16.10;74.70;;;;;;5076396;28;20091;-74
2022/04/17 11:57:01;;;;;;;2.10;1.20;;;16.20;74.80;;;;;;5076502;28;20051;-74
2022/04/17 11:59:27;;;;;;;2.45;1.15;;;16.30;74.00;;;;;;5093335;28;20040;-74
2022/04/17 12:02:09;;;;;;;1.77;1.25;;;16.40;75.30;;;;;;5059599;28;20384;-74
2022/04/17 12:04:38;;;;;;;2.50;1.10;;;16.50;71.50;;;;;;5093471;28;20083;-74
2022/04/17 12:07:04;;;;;;;1.63;1.05;;;16.60;73.80;;;;;;5093079;28;20044;-73
2022/04/17 12:09:30;;;;;;;2.28;1.52;;;16.60;72.60;;;;;;5076201;28;20101;-73
2022/04/17 12:11:55;;;;;;;0.95;0.70;;;16.90;70.90;;;;;;5093360;28;20126;-73
2022/04/17 12:14:31;;;;;;;2.35;1.13;;;16.80;72.10;;;;;;5093023;28;20044;-73
2022/04/17 12:16:57;;;;;;;1.45;0.73;;;17.10;70.90;;;;;;5093434;28;20047;-74
2022/04/17 12:19:25;;;;;;;6.15;1.02;;;17.00;70.10;;;;;;5092833;28;20075;-74
2022/04/17 12:21:51;;;;;;;2.67;1.27;;;17.00;68.90;;;;;;5092680;28;20044;-74
2022/04/17 12:24:18;;;;;;;1.05;0.65;;;17.20;69.60;;;;;;5093010;28;20391;-73
2022/04/17 12:26:45;;;;;;;2.17;0.75;;;17.30;70.00;;;;;;5059198;28;20495;-73
2022/04/17 12:29:11;;;;;;;1.50;1.30;;;17.30;66.90;;;;;;5092643;28;20036;-73
2022/04/17 12:31:37;;;;;;;1.52;1.35;;;17.10;65.90;;;;;;5075807;28;20039;-74
2022/04/17 12:34:30;;;;;;;0.82;0.77;;;17.10;68.00;;;;;;5092559;28;20043;-73
2022/04/17 12:36:56;;;;;;;1.63;0.98;;;16.90;66.00;;;;;;5074075;28;20494;-73
2022/04/17 12:39:34;;;;;;;6.18;1.83;;;16.90;65.10;;;;;;5076287;28;20514;-73
2022/04/17 12:42:15;;;;;;;1.02;0.90;;;17.00;66.50;;;;;;5092308;28;20129;-73
2022/04/17 12:44:40;;;;;;;1.10;1.00;;;17.20;67.70;;;;;;5092436;28;20069;-73
2022/04/17 12:47:16;;;;;;;2.05;0.95;;;17.20;65.90;;;;;;5075491;28;20506;-73
2022/04/17 12:49:42;;;;;;;1.10;0.93;;;17.20;64.40;;;;;;5075608;28;20889;-73
2022/04/17 12:52:09;;;;;;;3.88;1.50;;;17.20;63.90;;;;;;5092438;28;20036;-73
2022/04/17 12:54:36;;;;;;;1.05;0.95;;;17.20;64.60;;;;;;5075404;28;20040;-74
2022/04/17 12:57:05;;;;;;;1.08;0.88;;;17.10;64.80;;;;;;5092028;28;20036;-73
2022/04/17 12:59:51;;;;;;;1.40;1.20;;;17.20;65.70;;;;;;5092324;28;20047;-73
2022/04/17 13:02:19;;;;;;;1.33;1.05;;;17.20;67.30;;;;;;5091933;28;20051;-73
2022/04/17 13:04:46;;;;;;;1.27;1.15;;;17.30;65.30;;;;;;5091978;28;20044;-73
2022/04/17 13:07:15;;;;;;;1.83;0.98;;;17.20;64.20;;;;;;5075330;28;20052;-73
2022/04/17 13:10:02;;;;;;;3.28;1.88;;;17.20;65.80;;;;;;5075271;28;20398;-75
2022/04/17 13:12:44;;;;;;;2.55;1.65;;;17.10;62.60;;;;;;5092083;28;20040;-73
2022/04/17 13:15:11;;;;;;;8.55;1.08;;;17.30;66.40;;;;;;5092005;28;20040;-73